sensor_id;sensor_type;location;lat;lon;timestamp;P1;durP1;ratioP1;P2;durP2;ratioP2
19575;SDS011;41589;51.196;7.074;2023-06-26T00:01:32;0.90;;;0.90;;
19575;SDS011;41589;51.196;7.074;2023-06-26T00:06:32;1.00;;;1.00;;
19575;SDS011;41589;51.196;7.074;2023-06-26T00:11:33;1.00;;;1.00;;
19575;SDS011;41589;51.196;7.074;2023-06-26T00:16:33;1.17;;;1.17;;
19575;SDS011;41589;51.196;7.074;2023-06-26T00:21:33;1.00;;;1.00;;
19575;SDS011;41589;51.196;7.074;2023-06-26T00:26:34;1.00;;;1.00;;
19575;SDS011;41589;51.196;7.074;2023-06-26T00:31:34;1.20;;;1.20;;
19575;SDS011;41589;51.196;7.074;2023-06-26T00:36:40;1.00;;;1.00;;
19575;SDS011;41589;51.196;7.074;2023-06-26T00:41:43;0.90;;;0.90;;
19575;SDS011;41589;51.196;7.074;2023-06-26T00:46:45;0.97;;;0.97;;
19575;SDS011;41589;51.196;7.074;2023-06-26T00:51:46;1.30;;;1.23;;
19575;SDS011;41589;51.196;7.074;2023-06-26T00:56:46;1.00;;;1.00;;
19575;SDS011;41589;51.196;7.074;2023-06-26T01:01:47;0.90;;;0.90;;
19575;SDS011;41589;51.196;7.074;2023-06-26T01:06:48;1.23;;;1.20;;
19575;SDS011;41589;51.196;7.074;2023-06-26T01:11:50;1.20;;;1.20;;
19575;SDS011;41589;51.196;7.074;2023-06-26T01:16:50;0.93;;;0.93;;
19575;SDS011;41589;51.196;7.074;2023-06-26T01:22:00;1.13;;;1.10;;
19575;SDS011;41589;51.196;7.074;2023-06-26T01:27:14;1.00;;;1.00;;
19575;SDS011;41589;51.196;7.074;2023-06-26T01:32:15;1.10;;;1.10;;
19575;SDS011;41589;51.196;7.074;2023-06-26T01:37:16;1.00;;;1.00;;
19575;SDS011;41589;51.196;7.074;2023-06-26T01:42:16;1.23;;;1.23;;
19575;SDS011;41589;51.196;7.074;2023-06-26T01:47:19;2.33;;;1.10;;
19575;SDS011;41589;51.196;7.074;2023-06-26T01:57:40;0.90;;;0.90;;
19575;SDS011;41589;51.196;7.074;2023-06-26T02:02:42;1.20;;;1.20;;
19575;SDS011;41589;51.196;7.074;2023-06-26T02:07:42;1.07;;;1.07;;
19575;SDS011;41589;51.196;7.074;2023-06-26T02:12:43;1.10;;;1.10;;
19575;SDS011;41589;51.196;7.074;2023-06-26T02:17:46;1.50;;;1.13;;
19575;SDS011;41589;51.196;7.074;2023-06-26T02:22:48;1.20;;;1.20;;
19575;SDS011;41589;51.196;7.074;2023-06-26T02:27:51;1.13;;;1.03;;
19575;SDS011;41589;51.196;7.074;2023-06-26T02:32:53;1.10;;;1.10;;
19575;SDS011;41589;51.196;7.074;2023-06-26T02:37:54;1.27;;;1.20;;
19575;SDS011;41589;51.196;7.074;2023-06-26T02:42:54;1.30;;;1.20;;
19575;SDS011;41589;51.196;7.074;2023-06-26T02:47:55;1.00;;;1.00;;
19575;SDS011;41589;51.196;7.074;2023-06-26T02:52:55;1.10;;;1.10;;
19575;SDS011;41589;51.196;7.074;2023-06-26T02:57:56;1.33;;;1.33;;
19575;SDS011;41589;51.196;7.074;2023-06-26T03:02:57;1.00;;;1.00;;
19575;SDS011;41589;51.196;7.074;2023-06-26T03:07:57;1.13;;;1.13;;
19575;SDS011;41589;51.196;7.074;2023-06-26T03:12:58;1.00;;;1.00;;
19575;SDS011;41589;51.196;7.074;2023-06-26T03:17:59;1.00;;;1.00;;
19575;SDS011;41589;51.196;7.074;2023-06-26T03:23:02;1.00;;;1.00;;
19575;SDS011;41589;51.196;7.074;2023-06-26T03:28:18;1.30;;;1.20;;
19575;SDS011;41589;51.196;7.074;2023-06-26T03:33:20;1.10;;;1.10;;
19575;SDS011;41589;51.196;7.074;2023-06-26T03:38:21;1.20;;;1.20;;
19575;SDS011;41589;51.196;7.074;2023-06-26T03:43:22;1.10;;;1.10;;
19575;SDS011;41589;51.196;7.074;2023-06-26T03:48:36;1.33;;;1.33;;
19575;SDS011;41589;51.196;7.074;2023-06-26T03:53:41;1.10;;;1.10;;
19575;SDS011;41589;51.196;7.074;2023-06-26T03:58:51;1.50;;;1.40;;
19575;SDS011;41589;51.196;7.074;2023-06-26T04:04:01;1.30;;;1.20;;
19575;SDS011;41589;51.196;7.074;2023-06-26T04:09:10;1.23;;;1.13;;
19575;SDS011;41589;51.196;7.074;2023-06-26T04:14:23;1.30;;;1.30;;
19575;SDS011;41589;51.196;7.074;2023-06-26T04:19:31;2.47;;;1.40;;
19575;SDS011;41589;51.196;7.074;2023-06-26T04:24:37;1.17;;;1.17;;
19575;SDS011;41589;51.196;7.074;2023-06-26T04:29:39;1.30;;;1.30;;
19575;SDS011;41589;51.196;7.074;2023-06-26T04:34:40;1.43;;;1.33;;
19575;SDS011;41589;51.196;7.074;2023-06-26T04:39:43;1.87;;;1.30;;
19575;SDS011;41589;51.196;7.074;2023-06-26T04:44:43;1.10;;;1.10;;
19575;SDS011;41589;51.196;7.074;2023-06-26T04:49:44;1.53;;;1.43;;
19575;SDS011;41589;51.196;7.074;2023-06-26T04:54:45;1.43;;;1.33;;
19575;SDS011;41589;51.196;7.074;2023-06-26T04:59:46;1.17;;;1.17;;
19575;SDS011;41589;51.196;7.074;2023-06-26T05:04:46;1.10;;;1.10;;
19575;SDS011;41589;51.196;7.074;2023-06-26T05:09:47;1.40;;;1.30;;
19575;SDS011;41589;51.196;7.074;2023-06-26T05:14:47;1.10;;;1.10;;
19575;SDS011;41589;51.196;7.074;2023-06-26T05:19:48;1.37;;;1.30;;
19575;SDS011;41589;51.196;7.074;2023-06-26T05:24:48;1.43;;;1.10;;
19575;SDS011;41589;51.196;7.074;2023-06-26T05:29:51;1.20;;;1.20;;
19575;SDS011;41589;51.196;7.074;2023-06-26T05:34:52;1.13;;;1.13;;
19575;SDS011;41589;51.196;7.074;2023-06-26T05:39:54;1.77;;;1.23;;
19575;SDS011;41589;51.196;7.074;2023-06-26T05:44:54;2.50;;;1.30;;
19575;SDS011;41589;51.196;7.074;2023-06-26T05:49:55;1.43;;;1.33;;
19575;SDS011;41589;51.196;7.074;2023-06-26T05:54:56;1.30;;;1.30;;
19575;SDS011;41589;51.196;7.074;2023-06-26T06:00:00;2.00;;;1.20;;
19575;SDS011;41589;51.196;7.074;2023-06-26T06:05:00;1.10;;;1.10;;
19575;SDS011;41589;51.196;7.074;2023-06-26T06:10:01;1.33;;;1.27;;
19575;SDS011;41589;51.196;7.074;2023-06-26T06:15:03;1.17;;;1.10;;
19575;SDS011;41589;51.196;7.074;2023-06-26T06:20:04;1.40;;;1.30;;
19575;SDS011;41589;51.196;7.074;2023-06-26T06:25:06;1.47;;;1.30;;
19575;SDS011;41589;51.196;7.074;2023-06-26T06:30:06;1.43;;;1.33;;
19575;SDS011;41589;51.196;7.074;2023-06-26T06:35:07;1.33;;;1.23;;
19575;SDS011;41589;51.196;7.074;2023-06-26T06:40:14;2.40;;;1.40;;
19575;SDS011;41589;51.196;7.074;2023-06-26T06:45:14;2.57;;;1.40;;
19575;SDS011;41589;51.196;7.074;2023-06-26T06:50:15;1.30;;;1.20;;
19575;SDS011;41589;51.196;7.074;2023-06-26T06:55:16;1.30;;;1.20;;
19575;SDS011;41589;51.196;7.074;2023-06-26T07:00:16;1.40;;;1.30;;
19575;SDS011;41589;51.196;7.074;2023-06-26T07:05:17;1.47;;;1.37;;
19575;SDS011;41589;51.196;7.074;2023-06-26T07:10:17;1.40;;;1.30;;
19575;SDS011;41589;51.196;7.074;2023-06-26T07:15:18;1.30;;;1.20;;
19575;SDS011;41589;51.196;7.074;2023-06-26T07:20:18;1.53;;;1.43;;
19575;SDS011;41589;51.196;7.074;2023-06-26T07:25:19;1.30;;;1.20;;
19575;SDS011;41589;51.196;7.074;2023-06-26T07:30:19;1.33;;;1.20;;
19575;SDS011;41589;51.196;7.074;2023-06-26T07:35:20;1.67;;;1.57;;
19575;SDS011;41589;51.196;7.074;2023-06-26T07:46:46;2.07;;;1.87;;
19575;SDS011;41589;51.196;7.074;2023-06-26T07:51:46;1.73;;;1.40;;
19575;SDS011;41589;51.196;7.074;2023-06-26T08:02:04;1.33;;;1.23;;
19575;SDS011;41589;51.196;7.074;2023-06-26T08:07:06;1.60;;;1.50;;
19575;SDS011;41589;51.196;7.074;2023-06-26T08:12:06;2.80;;;1.40;;
19575;SDS011;41589;51.196;7.074;2023-06-26T08:17:07;1.50;;;1.40;;
19575;SDS011;41589;51.196;7.074;2023-06-26T08:22:07;1.93;;;1.53;;
19575;SDS011;41589;51.196;7.074;2023-06-26T08:27:08;1.60;;;1.43;;
19575;SDS011;41589;51.196;7.074;2023-06-26T08:32:08;1.50;;;1.40;;
19575;SDS011;41589;51.196;7.074;2023-06-26T08:37:09;1.40;;;1.30;;
19575;SDS011;41589;51.196;7.074;2023-06-26T08:42:09;1.50;;;1.40;;
19575;SDS011;41589;51.196;7.074;2023-06-26T08:47:15;1.53;;;1.43;;
19575;SDS011;41589;51.196;7.074;2023-06-26T08:52:28;1.70;;;1.60;;
19575;SDS011;41589;51.196;7.074;2023-06-26T08:57:31;2.47;;;1.70;;
19575;SDS011;41589;51.196;7.074;2023-06-26T09:02:32;2.60;;;1.37;;
19575;SDS011;41589;51.196;7.074;2023-06-26T09:07:33;2.30;;;1.70;;
19575;SDS011;41589;51.196;7.074;2023-06-26T09:12:33;1.37;;;1.27;;
19575;SDS011;41589;51.196;7.074;2023-06-26T09:17:38;2.33;;;1.90;;
19575;SDS011;41589;51.196;7.074;2023-06-26T09:22:42;2.33;;;1.80;;
19575;SDS011;41589;51.196;7.074;2023-06-26T09:27:50;1.77;;;1.67;;
19575;SDS011;41589;51.196;7.074;2023-06-26T09:32:50;1.60;;;1.50;;
19575;SDS011;41589;51.196;7.074;2023-06-26T09:37:51;1.33;;;1.23;;
19575;SDS011;41589;51.196;7.074;2023-06-26T09:42:53;1.40;;;1.30;;
19575;SDS011;41589;51.196;7.074;2023-06-26T09:48:03;1.83;;;1.47;;
19575;SDS011;41589;51.196;7.074;2023-06-26T09:53:07;2.33;;;1.70;;
19575;SDS011;41589;51.196;7.074;2023-06-26T09:58:10;1.30;;;1.20;;
19575;SDS011;41589;51.196;7.074;2023-06-26T10:03:14;1.63;;;1.20;;
19575;SDS011;41589;51.196;7.074;2023-06-26T10:08:15;1.80;;;1.40;;
19575;SDS011;41589;51.196;7.074;2023-06-26T10:13:19;2.27;;;1.30;;
19575;SDS011;41589;51.196;7.074;2023-06-26T10:18:23;1.40;;;1.10;;
19575;SDS011;41589;51.196;7.074;2023-06-26T10:23:25;1.63;;;1.00;;
19575;SDS011;41589;51.196;7.074;2023-06-26T10:28:26;1.60;;;1.10;;
19575;SDS011;41589;51.196;7.074;2023-06-26T10:33:29;1.20;;;1.10;;
19575;SDS011;41589;51.196;7.074;2023-06-26T10:38:47;1.20;;;1.10;;
19575;SDS011;41589;51.196;7.074;2023-06-26T10:48:59;1.73;;;1.17;;
19575;SDS011;41589;51.196;7.074;2023-06-26T10:54:00;1.63;;;1.07;;
19575;SDS011;41589;51.196;7.074;2023-06-26T10:59:10;2.13;;;1.13;;
19575;SDS011;41589;51.196;7.074;2023-06-26T11:04:14;2.07;;;0.70;;
19575;SDS011;41589;51.196;7.074;2023-06-26T11:09:17;0.93;;;0.90;;
19575;SDS011;41589;51.196;7.074;2023-06-26T11:14:24;0.90;;;0.90;;
19575;SDS011;41589;51.196;7.074;2023-06-26T11:19:29;1.70;;;0.80;;
19575;SDS011;41589;51.196;7.074;2023-06-26T11:24:29;1.53;;;1.00;;
19575;SDS011;41589;51.196;7.074;2023-06-26T11:29:31;1.03;;;0.73;;
19575;SDS011;41589;51.196;7.074;2023-06-26T11:34:33;1.77;;;0.87;;
19575;SDS011;41589;51.196;7.074;2023-06-26T11:39:35;0.87;;;0.50;;
19575;SDS011;41589;51.196;7.074;2023-06-26T11:44:40;0.63;;;0.63;;
19575;SDS011;41589;51.196;7.074;2023-06-26T11:49:43;1.80;;;0.80;;
19575;SDS011;41589;51.196;7.074;2023-06-26T11:54:45;0.60;;;0.60;;
19575;SDS011;41589;51.196;7.074;2023-06-26T11:59:46;0.70;;;0.70;;
19575;SDS011;41589;51.196;7.074;2023-06-26T12:04:50;0.70;;;0.70;;
19575;SDS011;41589;51.196;7.074;2023-06-26T12:09:50;0.70;;;0.70;;
19575;SDS011;41589;51.196;7.074;2023-06-26T12:14:51;1.17;;;0.87;;
19575;SDS011;41589;51.196;7.074;2023-06-26T12:19:52;0.80;;;0.80;;
19575;SDS011;41589;51.196;7.074;2023-06-26T12:24:56;0.60;;;0.60;;
19575;SDS011;41589;51.196;7.074;2023-06-26T12:29:56;1.73;;;0.87;;
19575;SDS011;41589;51.196;7.074;2023-06-26T12:34:57;1.10;;;0.80;;
19575;SDS011;41589;51.196;7.074;2023-06-26T12:39:58;1.03;;;0.70;;
19575;SDS011;41589;51.196;7.074;2023-06-26T12:44:58;0.90;;;0.90;;
19575;SDS011;41589;51.196;7.074;2023-06-26T12:50:04;0.87;;;0.80;;
19575;SDS011;41589;51.196;7.074;2023-06-26T12:55:05;2.00;;;1.00;;
19575;SDS011;41589;51.196;7.074;2023-06-26T13:00:06;1.00;;;0.90;;
19575;SDS011;41589;51.196;7.074;2023-06-26T13:05:07;0.60;;;0.60;;
19575;SDS011;41589;51.196;7.074;2023-06-26T13:10:08;0.80;;;0.80;;
19575;SDS011;41589;51.196;7.074;2023-06-26T13:15:08;0.60;;;0.60;;
19575;SDS011;41589;51.196;7.074;2023-06-26T13:20:10;1.10;;;0.53;;
19575;SDS011;41589;51.196;7.074;2023-06-26T13:25:10;0.60;;;0.60;;
19575;SDS011;41589;51.196;7.074;2023-06-26T13:30:11;0.50;;;0.50;;
19575;SDS011;41589;51.196;7.074;2023-06-26T13:35:12;1.50;;;0.80;;
19575;SDS011;41589;51.196;7.074;2023-06-26T13:40:13;0.60;;;0.60;;
19575;SDS011;41589;51.196;7.074;2023-06-26T13:45:14;0.50;;;0.50;;
19575;SDS011;41589;51.196;7.074;2023-06-26T13:50:14;0.80;;;0.80;;
19575;SDS011;41589;51.196;7.074;2023-06-26T13:55:15;0.50;;;0.50;;
19575;SDS011;41589;51.196;7.074;2023-06-26T14:00:15;0.87;;;0.80;;
19575;SDS011;41589;51.196;7.074;2023-06-26T14:05:19;0.87;;;0.63;;
19575;SDS011;41589;51.196;7.074;2023-06-26T14:10:21;0.60;;;0.60;;
19575;SDS011;41589;51.196;7.074;2023-06-26T14:15:22;1.13;;;0.60;;
19575;SDS011;41589;51.196;7.074;2023-06-26T14:20:23;0.77;;;0.70;;
19575;SDS011;41589;51.196;7.074;2023-06-26T14:25:23;0.57;;;0.57;;
19575;SDS011;41589;51.196;7.074;2023-06-26T14:30:23;0.60;;;0.60;;
19575;SDS011;41589;51.196;7.074;2023-06-26T14:35:24;0.60;;;0.60;;
19575;SDS011;41589;51.196;7.074;2023-06-26T14:40:24;0.60;;;0.60;;
19575;SDS011;41589;51.196;7.074;2023-06-26T14:45:24;0.60;;;0.60;;
19575;SDS011;41589;51.196;7.074;2023-06-26T14:50:25;0.50;;;0.50;;
19575;SDS011;41589;51.196;7.074;2023-06-26T14:55:26;0.90;;;0.60;;
19575;SDS011;41589;51.196;7.074;2023-06-26T15:00:26;0.50;;;0.50;;
19575;SDS011;41589;51.196;7.074;2023-06-26T15:05:27;0.60;;;0.60;;
19575;SDS011;41589;51.196;7.074;2023-06-26T15:10:27;0.60;;;0.60;;
19575;SDS011;41589;51.196;7.074;2023-06-26T15:15:28;0.70;;;0.70;;
19575;SDS011;41589;51.196;7.074;2023-06-26T15:20:28;1.00;;;0.77;;
19575;SDS011;41589;51.196;7.074;2023-06-26T15:25:28;0.70;;;0.70;;
19575;SDS011;41589;51.196;7.074;2023-06-26T15:30:29;0.70;;;0.70;;
19575;SDS011;41589;51.196;7.074;2023-06-26T15:35:29;0.50;;;0.50;;
19575;SDS011;41589;51.196;7.074;2023-06-26T15:40:29;0.57;;;0.50;;
19575;SDS011;41589;51.196;7.074;2023-06-26T15:45:30;0.70;;;0.70;;
19575;SDS011;41589;51.196;7.074;2023-06-26T15:50:30;1.13;;;0.50;;
19575;SDS011;41589;51.196;7.074;2023-06-26T15:55:31;0.40;;;0.40;;
19575;SDS011;41589;51.196;7.074;2023-06-26T16:00:31;0.57;;;0.57;;
19575;SDS011;41589;51.196;7.074;2023-06-26T16:05:31;0.50;;;0.50;;
19575;SDS011;41589;51.196;7.074;2023-06-26T16:10:31;0.53;;;0.53;;
19575;SDS011;41589;51.196;7.074;2023-06-26T16:15:32;0.60;;;0.60;;
19575;SDS011;41589;51.196;7.074;2023-06-26T16:20:32;0.57;;;0.57;;
19575;SDS011;41589;51.196;7.074;2023-06-26T16:25:32;0.60;;;0.60;;
19575;SDS011;41589;51.196;7.074;2023-06-26T16:30:33;0.50;;;0.50;;
19575;SDS011;41589;51.196;7.074;2023-06-26T16:35:33;0.73;;;0.73;;
19575;SDS011;41589;51.196;7.074;2023-06-26T16:40:36;1.07;;;0.60;;
19575;SDS011;41589;51.196;7.074;2023-06-26T16:45:37;0.50;;;0.50;;
19575;SDS011;41589;51.196;7.074;2023-06-26T16:50:37;0.47;;;0.47;;
19575;SDS011;41589;51.196;7.074;2023-06-26T16:55:38;0.50;;;0.50;;
19575;SDS011;41589;51.196;7.074;2023-06-26T17:00:38;0.50;;;0.50;;
19575;SDS011;41589;51.196;7.074;2023-06-26T17:05:39;0.50;;;0.50;;
19575;SDS011;41589;51.196;7.074;2023-06-26T17:10:39;0.50;;;0.50;;
19575;SDS011;41589;51.196;7.074;2023-06-26T17:15:40;0.87;;;0.87;;
19575;SDS011;41589;51.196;7.074;2023-06-26T17:20:40;0.50;;;0.50;;
19575;SDS011;41589;51.196;7.074;2023-06-26T17:25:41;0.67;;;0.67;;
19575;SDS011;41589;51.196;7.074;2023-06-26T17:30:41;0.43;;;0.43;;
19575;SDS011;41589;51.196;7.074;2023-06-26T17:35:42;0.90;;;0.47;;
19575;SDS011;41589;51.196;7.074;2023-06-26T17:40:42;0.60;;;0.60;;
19575;SDS011;41589;51.196;7.074;2023-06-26T17:45:43;0.40;;;0.40;;
19575;SDS011;41589;51.196;7.074;2023-06-26T17:50:43;0.50;;;0.50;;
19575;SDS011;41589;51.196;7.074;2023-06-26T17:55:43;0.87;;;0.60;;
19575;SDS011;41589;51.196;7.074;2023-06-26T18:00:44;0.50;;;0.50;;
19575;SDS011;41589;51.196;7.074;2023-06-26T18:05:44;0.80;;;0.40;;
19575;SDS011;41589;51.196;7.074;2023-06-26T18:10:45;0.40;;;0.40;;
19575;SDS011;41589;51.196;7.074;2023-06-26T18:15:45;0.73;;;0.70;;
19575;SDS011;41589;51.196;7.074;2023-06-26T18:20:46;1.20;;;0.53;;
19575;SDS011;41589;51.196;7.074;2023-06-26T18:25:46;0.50;;;0.50;;
19575;SDS011;41589;51.196;7.074;2023-06-26T18:30:47;0.63;;;0.50;;
19575;SDS011;41589;51.196;7.074;2023-06-26T18:35:47;0.67;;;0.63;;
19575;SDS011;41589;51.196;7.074;2023-06-26T18:40:47;0.50;;;0.50;;
19575;SDS011;41589;51.196;7.074;2023-06-26T18:45:48;0.73;;;0.60;;
19575;SDS011;41589;51.196;7.074;2023-06-26T18:50:48;1.07;;;0.77;;
19575;SDS011;41589;51.196;7.074;2023-06-26T18:55:49;0.63;;;0.63;;
19575;SDS011;41589;51.196;7.074;2023-06-26T19:00:49;0.83;;;0.80;;
19575;SDS011;41589;51.196;7.074;2023-06-26T19:05:49;0.70;;;0.70;;
19575;SDS011;41589;51.196;7.074;2023-06-26T19:10:53;0.60;;;0.60;;
19575;SDS011;41589;51.196;7.074;2023-06-26T19:15:53;1.03;;;0.67;;
19575;SDS011;41589;51.196;7.074;2023-06-26T19:20:54;0.83;;;0.60;;
19575;SDS011;41589;51.196;7.074;2023-06-26T19:25:54;0.60;;;0.60;;
19575;SDS011;41589;51.196;7.074;2023-06-26T19:30:56;1.53;;;0.70;;
19575;SDS011;41589;51.196;7.074;2023-06-26T19:35:56;1.00;;;0.80;;
19575;SDS011;41589;51.196;7.074;2023-06-26T19:40:56;0.50;;;0.50;;
19575;SDS011;41589;51.196;7.074;2023-06-26T19:45:57;0.50;;;0.50;;
19575;SDS011;41589;51.196;7.074;2023-06-26T19:50:57;0.87;;;0.50;;
19575;SDS011;41589;51.196;7.074;2023-06-26T19:55:58;0.67;;;0.63;;
19575;SDS011;41589;51.196;7.074;2023-06-26T20:00:58;0.60;;;0.60;;
19575;SDS011;41589;51.196;7.074;2023-06-26T20:05:59;0.60;;;0.60;;
19575;SDS011;41589;51.196;7.074;2023-06-26T20:10:59;0.80;;;0.67;;
19575;SDS011;41589;51.196;7.074;2023-06-26T20:15:59;0.70;;;0.57;;
19575;SDS011;41589;51.196;7.074;2023-06-26T20:21:00;0.60;;;0.60;;
19575;SDS011;41589;51.196;7.074;2023-06-26T20:26:00;0.63;;;0.53;;
19575;SDS011;41589;51.196;7.074;2023-06-26T20:31:01;0.60;;;0.60;;
19575;SDS011;41589;51.196;7.074;2023-06-26T20:36:02;0.70;;;0.70;;
19575;SDS011;41589;51.196;7.074;2023-06-26T20:41:02;0.70;;;0.70;;
19575;SDS011;41589;51.196;7.074;2023-06-26T20:46:05;1.40;;;0.67;;
19575;SDS011;41589;51.196;7.074;2023-06-26T20:51:05;0.70;;;0.70;;
19575;SDS011;41589;51.196;7.074;2023-06-26T20:56:06;0.60;;;0.60;;
19575;SDS011;41589;51.196;7.074;2023-06-26T21:01:07;0.80;;;0.80;;
19575;SDS011;41589;51.196;7.074;2023-06-26T21:06:07;0.77;;;0.77;;
19575;SDS011;41589;51.196;7.074;2023-06-26T21:11:08;0.73;;;0.73;;
19575;SDS011;41589;51.196;7.074;2023-06-26T21:16:08;0.83;;;0.83;;
19575;SDS011;41589;51.196;7.074;2023-06-26T21:21:09;0.60;;;0.60;;
19575;SDS011;41589;51.196;7.074;2023-06-26T21:26:09;0.70;;;0.70;;
19575;SDS011;41589;51.196;7.074;2023-06-26T21:31:10;2.13;;;1.10;;
19575;SDS011;41589;51.196;7.074;2023-06-26T21:36:10;0.50;;;0.50;;
19575;SDS011;41589;51.196;7.074;2023-06-26T21:41:11;0.73;;;0.60;;
19575;SDS011;41589;51.196;7.074;2023-06-26T21:46:11;0.70;;;0.50;;
19575;SDS011;41589;51.196;7.074;2023-06-26T21:51:11;0.73;;;0.60;;
19575;SDS011;41589;51.196;7.074;2023-06-26T21:56:12;0.60;;;0.60;;
19575;SDS011;41589;51.196;7.074;2023-06-26T22:01:12;0.50;;;0.50;;
19575;SDS011;41589;51.196;7.074;2023-06-26T22:06:13;0.57;;;0.57;;
19575;SDS011;41589;51.196;7.074;2023-06-26T22:11:13;0.60;;;0.60;;
19575;SDS011;41589;51.196;7.074;2023-06-26T22:16:14;0.57;;;0.57;;
19575;SDS011;41589;51.196;7.074;2023-06-26T22:21:14;0.67;;;0.60;;
19575;SDS011;41589;51.196;7.074;2023-06-26T22:26:14;0.60;;;0.60;;
19575;SDS011;41589;51.196;7.074;2023-06-26T22:31:15;0.50;;;0.50;;
19575;SDS011;41589;51.196;7.074;2023-06-26T22:36:15;0.97;;;0.70;;
19575;SDS011;41589;51.196;7.074;2023-06-26T22:41:16;0.60;;;0.60;;
19575;SDS011;41589;51.196;7.074;2023-06-26T22:46:16;0.80;;;0.60;;
19575;SDS011;41589;51.196;7.074;2023-06-26T22:51:16;0.60;;;0.60;;
19575;SDS011;41589;51.196;7.074;2023-06-26T22:56:17;0.77;;;0.70;;
19575;SDS011;41589;51.196;7.074;2023-06-26T23:01:17;0.80;;;0.80;;
19575;SDS011;41589;51.196;7.074;2023-06-26T23:06:17;0.70;;;0.70;;
19575;SDS011;41589;51.196;7.074;2023-06-26T23:11:21;0.60;;;0.60;;
19575;SDS011;41589;51.196;7.074;2023-06-26T23:16:22;0.60;;;0.60;;
19575;SDS011;41589;51.196;7.074;2023-06-26T23:21:22;0.73;;;0.73;;
19575;SDS011;41589;51.196;7.074;2023-06-26T23:26:23;0.70;;;0.70;;
19575;SDS011;41589;51.196;7.074;2023-06-26T23:31:23;0.70;;;0.70;;
19575;SDS011;41589;51.196;7.074;2023-06-26T23:36:25;0.63;;;0.63;;
19575;SDS011;41589;51.196;7.074;2023-06-26T23:41:28;0.70;;;0.70;;
19575;SDS011;41589;51.196;7.074;2023-06-26T23:46:29;0.83;;;0.80;;
19575;SDS011;41589;51.196;7.074;2023-06-26T23:51:29;0.93;;;0.83;;
19575;SDS011;41589;51.196;7.074;2023-06-26T23:56:33;0.60;;;0.60;;
